createdAt,value
2023-04-16T00:00:09.815Z,39.70
2023-04-16T00:02:59.366Z,39.46
2023-04-16T00:05:46.037Z,40.12
2023-04-16T00:08:32.454Z,40.25
2023-04-16T00:11:18.873Z,40.16
2023-04-16T00:14:05.205Z,40.43
2023-04-16T00:16:51.084Z,40.20
2023-04-16T00:19:37.354Z,40.59
2023-04-16T00:22:23.386Z,40.44
2023-04-16T00:25:10.111Z,40.38
2023-04-16T00:27:55.945Z,40.68
2023-04-16T00:30:42.003Z,40.40
2023-04-16T00:33:27.689Z,40.65
2023-04-16T00:36:13.519Z,40.56
2023-04-16T00:38:59.593Z,40.57
2023-04-16T00:41:47.508Z,40.71
2023-04-16T00:44:36.068Z,40.37
2023-04-16T00:47:22.215Z,40.85
2023-04-16T00:50:12.009Z,41.31
2023-04-16T00:52:58.470Z,41.00
2023-04-16T00:55:46.097Z,41.08
2023-04-16T00:58:33.553Z,41.18
2023-04-16T01:01:19.276Z,41.08
2023-04-16T01:04:07.346Z,41.17
2023-04-16T01:06:53.311Z,41.27
2023-04-16T01:09:39.332Z,41.40
2023-04-16T01:12:25.562Z,41.42
2023-04-16T01:15:12.034Z,41.17
2023-04-16T01:17:58.186Z,41.17
2023-04-16T01:20:45.127Z,41.27
2023-04-16T01:23:32.555Z,41.05
2023-04-16T01:26:18.559Z,41.39
2023-04-16T01:29:04.350Z,41.09
2023-04-16T01:31:50.117Z,41.76
2023-04-16T01:34:45.608Z,40.91
2023-04-16T01:37:31.589Z,41.18
2023-04-16T01:40:18.472Z,41.65
2023-04-16T01:43:05.853Z,41.44
2023-04-16T01:45:53.364Z,41.59
2023-04-16T01:48:39.266Z,41.61
2023-04-16T01:51:25.336Z,41.91
2023-04-16T01:54:11.326Z,41.56
2023-04-16T01:56:58.855Z,42.02
2023-04-16T01:59:44.721Z,41.80
2023-04-16T02:02:30.781Z,42.28
2023-04-16T02:05:16.938Z,42.53
2023-04-16T02:08:03.244Z,41.77
2023-04-16T02:10:50.457Z,42.14
2023-04-16T02:13:36.626Z,41.88
2023-04-16T02:16:23.040Z,42.14
2023-04-16T02:19:45.403Z,42.41
2023-04-16T02:22:31.557Z,41.81
2023-04-16T02:25:17.537Z,42.50
2023-04-16T02:28:03.538Z,41.99
2023-04-16T02:30:54.831Z,42.07
2023-04-16T02:33:41.148Z,42.77
2023-04-16T02:36:27.632Z,42.55
2023-04-16T02:39:14.361Z,42.52
2023-04-16T02:42:02.608Z,42.80
2023-04-16T02:44:48.898Z,42.27
2023-04-16T02:47:34.845Z,42.43
2023-04-16T02:50:22.228Z,42.54
2023-04-16T02:53:08.365Z,42.95
2023-04-16T02:55:55.520Z,42.56
2023-04-16T02:58:41.618Z,42.07
2023-04-16T03:01:28.651Z,42.49
2023-04-16T03:04:14.465Z,42.92
2023-04-16T03:07:00.547Z,42.47
2023-04-16T03:09:46.922Z,42.71
2023-04-16T03:12:32.878Z,42.82
2023-04-16T03:15:18.815Z,42.94
2023-04-16T03:18:04.851Z,43.28
2023-04-16T03:20:53.927Z,43.64
2023-04-16T03:23:39.964Z,42.53
2023-04-16T03:26:25.867Z,43.01
2023-04-16T03:29:11.869Z,42.77
2023-04-16T03:31:57.816Z,43.22
2023-04-16T03:34:45.139Z,43.54
2023-04-16T03:37:31.468Z,42.99
2023-04-16T03:40:17.448Z,43.29
2023-04-16T03:43:04.615Z,43.70
2023-04-16T03:45:51.031Z,43.44
2023-04-16T03:48:40.566Z,43.29
2023-04-16T03:51:27.188Z,43.58
2023-04-16T03:54:13.315Z,43.50
2023-04-16T03:57:02.508Z,43.83
2023-04-16T03:59:48.888Z,43.37
2023-04-16T04:02:36.814Z,43.46
2023-04-16T04:05:23.257Z,43.62
2023-04-16T04:08:09.769Z,43.73
2023-04-16T04:10:56.166Z,43.56
2023-04-16T04:13:43.584Z,43.78
2023-04-16T04:16:29.527Z,43.11
2023-04-16T04:19:18.301Z,43.80
2023-04-16T04:22:04.267Z,43.92
2023-04-16T04:24:50.147Z,43.36
2023-04-16T04:27:36.202Z,43.88
2023-04-16T04:30:22.520Z,44.06
2023-04-16T04:33:08.843Z,44.31
2023-04-16T04:35:57.967Z,43.72
2023-04-16T04:38:44.681Z,44.45
2023-04-16T04:41:31.172Z,43.72
2023-04-16T04:44:17.056Z,43.29
2023-04-16T04:47:03.157Z,43.39
2023-04-16T04:49:49.431Z,43.92
2023-04-16T04:52:36.125Z,43.88
2023-04-16T04:55:22.420Z,43.84
2023-04-16T04:58:09.990Z,43.98
2023-04-16T05:00:58.183Z,44.10
2023-04-16T05:03:44.660Z,43.72
2023-04-16T05:06:31.452Z,43.94
2023-04-16T05:09:17.538Z,44.21
2023-04-16T05:12:04.337Z,44.13
2023-04-16T05:14:50.057Z,44.20
2023-04-16T05:17:35.810Z,44.72
2023-04-16T05:20:23.149Z,44.61
2023-04-16T05:23:09.067Z,45.00
2023-04-16T05:25:55.729Z,44.65
2023-04-16T05:28:41.768Z,44.84
2023-04-16T05:31:27.362Z,44.63
2023-04-16T05:34:13.093Z,44.91
2023-04-16T05:36:58.971Z,44.47
2023-04-16T05:39:44.711Z,45.14
2023-04-16T05:42:30.678Z,45.25
2023-04-16T05:45:16.693Z,45.03
2023-04-16T05:48:02.413Z,45.12
2023-04-16T05:50:48.122Z,45.10
2023-04-16T05:53:33.888Z,45.00
2023-04-16T05:56:20.959Z,45.08
2023-04-16T05:59:07.104Z,45.15
2023-04-16T06:01:52.830Z,45.57
2023-04-16T06:04:38.597Z,45.04
2023-04-16T06:07:24.363Z,45.69
2023-04-16T06:10:10.899Z,44.99
2023-04-16T06:12:57.128Z,45.40
2023-04-16T06:15:43.327Z,45.40
2023-04-16T06:18:29.496Z,45.20
2023-04-16T06:21:15.748Z,45.69
2023-04-16T06:24:01.611Z,46.07
2023-04-16T06:26:47.532Z,45.95
2023-04-16T06:29:40.552Z,45.68
2023-04-16T06:32:27.235Z,48.51
2023-04-16T06:35:13.005Z,45.74
2023-04-16T06:37:58.711Z,45.57
2023-04-16T06:40:44.856Z,45.82
2023-04-16T06:43:33.600Z,45.83
2023-04-16T06:46:19.844Z,45.91
2023-04-16T06:49:06.046Z,45.91
2023-04-16T06:51:51.941Z,45.84
2023-04-16T06:54:37.732Z,45.91
2023-04-16T06:57:23.578Z,45.88
2023-04-16T07:00:09.854Z,46.10
2023-04-16T07:02:58.252Z,45.74
2023-04-16T07:05:44.734Z,45.97
2023-04-16T07:08:30.604Z,45.67
2023-04-16T07:11:16.587Z,45.58
2023-04-16T07:14:02.646Z,45.77
2023-04-16T07:16:48.754Z,46.24
2023-04-16T07:19:35.308Z,46.36
2023-04-16T07:22:21.793Z,46.13
2023-04-16T07:25:07.948Z,46.09
2023-04-16T07:27:53.877Z,46.00
2023-04-16T07:30:39.891Z,46.13
2023-04-16T07:33:26.149Z,46.23
2023-04-16T07:36:12.523Z,46.20
2023-04-16T07:38:58.632Z,46.24
2023-04-16T07:41:45.142Z,46.14
2023-04-16T07:44:32.252Z,46.24
2023-04-16T07:47:17.959Z,46.23
2023-04-16T07:50:04.125Z,46.56
2023-04-16T07:52:50.538Z,46.27
2023-04-16T07:55:36.506Z,46.26
2023-04-16T07:58:22.227Z,46.26
2023-04-16T08:01:07.966Z,46.41
2023-04-16T08:03:54.060Z,46.64
2023-04-16T08:06:40.178Z,46.83
2023-04-16T08:09:27.565Z,46.57
2023-04-16T08:12:13.517Z,46.79
2023-04-16T08:14:59.522Z,47.16
2023-04-16T08:17:45.742Z,46.91
2023-04-16T08:20:32.076Z,47.21
2023-04-16T08:23:17.802Z,47.22
2023-04-16T08:26:03.839Z,47.53
2023-04-16T08:28:49.853Z,47.29
2023-04-16T08:31:36.023Z,47.08
2023-04-16T08:34:23.824Z,47.21
2023-04-16T08:37:10.060Z,46.86
2023-04-16T08:39:56.047Z,47.03
2023-04-16T08:42:53.845Z,48.29
2023-04-16T08:45:41.506Z,46.90
2023-04-16T08:48:33.147Z,46.62
2023-04-16T08:51:26.835Z,46.66
2023-04-16T08:54:47.676Z,47.31
2023-04-16T08:57:49.705Z,46.61
2023-04-16T09:00:35.683Z,46.76
2023-04-16T09:03:22.128Z,46.71
2023-04-16T09:06:08.825Z,46.67
2023-04-16T09:08:55.551Z,46.92
2023-04-16T09:11:41.895Z,46.86
2023-04-16T09:14:27.951Z,46.73
2023-04-16T09:17:14.226Z,46.42
2023-04-16T09:20:00.548Z,46.93
2023-04-16T09:22:46.849Z,46.89
2023-04-16T09:25:34.825Z,46.67
2023-04-16T09:28:43.768Z,47.58
2023-04-16T09:31:29.683Z,46.25
2023-04-16T09:34:15.805Z,46.48
2023-04-16T09:37:17.924Z,46.36
2023-04-16T09:40:04.694Z,45.93
2023-04-16T09:42:53.481Z,46.06
2023-04-16T09:45:50.994Z,45.68
2023-04-16T09:48:37.784Z,45.84
2023-04-16T09:51:25.167Z,45.68
2023-04-16T09:54:11.750Z,45.47
2023-04-16T09:56:58.213Z,45.27
2023-04-16T09:59:44.096Z,45.11
2023-04-16T10:02:31.253Z,45.16
2023-04-16T10:05:20.390Z,45.12
2023-04-16T10:08:13.860Z,44.79
2023-04-16T10:10:59.808Z,44.79
2023-04-16T10:13:47.505Z,44.83
2023-04-16T10:16:35.578Z,44.60
2023-04-16T10:19:22.118Z,44.05
2023-04-16T10:22:08.074Z,44.16
2023-04-16T10:24:54.928Z,43.98
2023-04-16T10:27:41.567Z,43.89
2023-04-16T10:30:27.825Z,44.02
2023-04-16T10:33:13.701Z,43.78
2023-04-16T10:36:22.007Z,43.51
2023-04-16T10:39:16.846Z,43.38
2023-04-16T10:42:13.269Z,43.58
2023-04-16T10:45:00.339Z,43.45
2023-04-16T10:47:46.403Z,43.33
2023-04-16T10:50:41.693Z,42.87
2023-04-16T10:53:39.062Z,43.08
2023-04-16T10:56:28.049Z,43.03
2023-04-16T10:59:13.966Z,43.07
2023-04-16T11:02:04.074Z,43.04
2023-04-16T11:04:50.199Z,42.84
2023-04-16T11:07:36.276Z,43.11
2023-04-16T11:10:22.058Z,43.29
2023-04-16T11:13:09.164Z,42.97
2023-04-16T11:15:57.917Z,42.95
2023-04-16T11:18:51.377Z,43.02
2023-04-16T11:21:45.298Z,42.93
2023-04-16T11:24:32.246Z,42.81
2023-04-16T11:27:18.046Z,42.83
2023-04-16T11:30:11.363Z,42.97
2023-04-16T11:32:57.212Z,42.67
2023-04-16T11:35:43.538Z,42.73
2023-04-16T11:38:34.543Z,42.98
2023-04-16T11:41:21.980Z,43.11
2023-04-16T11:44:24.909Z,42.34
2023-04-16T11:47:13.799Z,42.31
2023-04-16T11:50:22.531Z,42.04
2023-04-16T11:53:12.347Z,42.05
2023-04-16T11:55:59.199Z,41.80
2023-04-16T11:59:07.225Z,40.44
2023-04-16T12:01:58.019Z,41.43
2023-04-16T12:04:44.245Z,41.68
2023-04-16T12:07:30.705Z,41.65
2023-04-16T12:10:16.442Z,41.56
2023-04-16T12:13:14.803Z,41.37
2023-04-16T12:16:03.874Z,41.13
2023-04-16T12:19:04.149Z,40.85
2023-04-16T12:21:50.760Z,41.32
2023-04-16T12:24:37.956Z,41.49
2023-04-16T12:27:28.586Z,41.64
2023-04-16T12:30:15.768Z,41.15
2023-04-16T12:33:15.504Z,41.03
2023-04-16T12:36:19.454Z,41.19
2023-04-16T12:39:07.504Z,41.28
2023-04-16T12:41:53.752Z,41.18
2023-04-16T12:44:39.554Z,41.03
2023-04-16T12:47:25.290Z,40.99
2023-04-16T12:50:12.189Z,41.10
2023-04-16T12:52:58.444Z,40.95
2023-04-16T12:55:45.424Z,41.01
2023-04-16T12:58:31.453Z,40.87
2023-04-16T13:01:20.601Z,41.13
2023-04-16T13:04:07.751Z,41.21
2023-04-16T13:06:53.829Z,41.33
2023-04-16T13:09:40.139Z,40.86
2023-04-16T13:12:27.429Z,40.38
2023-04-16T13:15:13.507Z,40.19
2023-04-16T13:17:59.652Z,39.91
2023-04-16T13:20:45.957Z,39.62
2023-04-16T13:23:31.786Z,39.33
2023-04-16T13:26:17.816Z,39.21
2023-04-16T13:29:03.825Z,39.25
2023-04-16T13:31:49.755Z,39.30
2023-04-16T13:34:35.912Z,39.23
2023-04-16T13:37:21.660Z,39.17
2023-04-16T13:40:08.453Z,39.20
2023-04-16T13:42:54.679Z,39.36
2023-04-16T13:45:40.704Z,39.10
2023-04-16T13:48:26.849Z,39.35
2023-04-16T13:51:15.479Z,39.35
2023-04-16T13:54:02.815Z,39.39
2023-04-16T13:56:50.678Z,39.49
2023-04-16T13:59:37.258Z,39.62
2023-04-16T14:02:23.128Z,39.50
2023-04-16T14:05:09.745Z,39.78
2023-04-16T14:07:56.079Z,39.74
2023-04-16T14:10:42.249Z,39.39
2023-04-16T14:13:28.417Z,38.55
2023-04-16T14:16:14.542Z,38.16
2023-04-16T14:19:00.951Z,38.04
2023-04-16T14:21:47.407Z,37.79
2023-04-16T14:24:33.329Z,37.70
2023-04-16T14:27:19.021Z,37.49
2023-04-16T14:30:06.275Z,37.39
2023-04-16T14:32:52.499Z,37.77
2023-04-16T14:35:38.324Z,37.87
2023-04-16T14:38:24.288Z,38.04
2023-04-16T14:41:12.539Z,38.27
2023-04-16T14:43:59.500Z,38.25
2023-04-16T14:46:46.442Z,38.51
2023-04-16T14:49:32.489Z,38.35
2023-04-16T14:52:18.680Z,38.55
2023-04-16T14:55:05.819Z,38.72
2023-04-16T14:57:51.591Z,38.71
2023-04-16T15:00:37.689Z,38.92
2023-04-16T15:03:24.166Z,38.87
2023-04-16T15:06:11.473Z,38.80
2023-04-16T15:08:57.208Z,38.83
2023-04-16T15:11:43.000Z,38.93
2023-04-16T15:14:28.901Z,38.93
2023-04-16T15:17:14.952Z,39.08
2023-04-16T15:20:01.883Z,39.15
2023-04-16T15:22:47.555Z,39.15
2023-04-16T15:25:33.500Z,38.90
2023-04-16T15:28:19.765Z,38.96
2023-04-16T15:31:05.905Z,38.77
2023-04-16T15:33:52.701Z,38.65
2023-04-16T15:36:38.627Z,38.35
2023-04-16T15:39:24.932Z,38.00
2023-04-16T15:42:13.238Z,37.90
2023-04-16T15:44:59.252Z,37.92
2023-04-16T15:47:48.082Z,38.02
2023-04-16T15:50:34.046Z,38.06
2023-04-16T15:53:20.151Z,38.17
2023-04-16T15:56:06.408Z,38.25
2023-04-16T15:58:52.497Z,38.41
2023-04-16T16:01:38.795Z,38.61
2023-04-16T16:04:26.553Z,38.73
2023-04-16T16:07:13.120Z,38.38
2023-04-16T16:09:58.947Z,38.58
2023-04-16T16:12:44.929Z,38.33
2023-04-16T16:15:32.165Z,38.46
2023-04-16T16:18:18.083Z,38.58
2023-04-16T16:21:04.106Z,38.62
2023-04-16T16:23:50.077Z,38.70
2023-04-16T16:26:36.178Z,38.63
2023-04-16T16:29:22.307Z,38.61
2023-04-16T16:32:08.529Z,38.91
2023-04-16T16:34:54.530Z,38.78
2023-04-16T16:37:40.666Z,38.78
2023-04-16T16:40:26.735Z,38.73
2023-04-16T16:43:13.237Z,38.88
2023-04-16T16:45:59.314Z,39.05
2023-04-16T16:48:46.406Z,39.16
2023-04-16T16:51:33.722Z,38.90
2023-04-16T16:54:54.667Z,39.44
2023-04-16T16:57:46.129Z,39.39
2023-04-16T17:00:44.584Z,39.40
2023-04-16T17:03:30.453Z,39.56
2023-04-16T17:06:16.559Z,39.33
2023-04-16T17:09:02.525Z,39.67
2023-04-16T17:11:48.476Z,39.52
2023-04-16T17:14:35.445Z,39.61
2023-04-16T17:17:21.817Z,39.70
2023-04-16T17:20:10.019Z,39.86
2023-04-16T17:22:56.050Z,39.91
2023-04-16T17:25:42.272Z,40.32
2023-04-16T17:28:28.368Z,40.13
2023-04-16T17:31:14.966Z,40.68
2023-04-16T17:34:01.134Z,40.85
2023-04-16T17:36:51.876Z,41.15
2023-04-16T17:39:38.288Z,41.50
2023-04-16T17:42:26.081Z,41.71
2023-04-16T17:45:13.664Z,42.15
2023-04-16T17:47:59.640Z,42.12
2023-04-16T17:50:46.068Z,42.67
2023-04-16T17:53:33.001Z,42.65
2023-04-16T17:56:19.023Z,43.12
2023-04-16T17:59:05.245Z,43.18
2023-04-16T18:01:54.914Z,43.41
2023-04-16T18:04:40.969Z,43.28
2023-04-16T18:07:27.289Z,43.63
2023-04-16T18:10:13.438Z,44.37
2023-04-16T18:12:59.608Z,43.90
2023-04-16T18:15:45.906Z,44.03
2023-04-16T18:18:31.974Z,44.28
2023-04-16T18:21:17.735Z,44.48
2023-04-16T18:24:03.958Z,44.66
2023-04-16T18:26:49.996Z,44.68
2023-04-16T18:29:36.089Z,44.96
2023-04-16T18:32:22.100Z,44.88
2023-04-16T18:35:08.294Z,44.98
2023-04-16T18:37:54.323Z,45.13
2023-04-16T18:40:42.235Z,45.07
2023-04-16T18:43:28.090Z,45.08
2023-04-16T18:46:14.915Z,45.45
2023-04-16T18:49:01.036Z,45.13
2023-04-16T18:51:47.082Z,45.00
2023-04-16T18:54:33.050Z,44.95
2023-04-16T18:57:19.098Z,44.91
2023-04-16T19:00:11.124Z,45.21
2023-04-16T19:02:56.944Z,45.06
2023-04-16T19:05:43.092Z,45.25
2023-04-16T19:08:29.149Z,45.62
2023-04-16T19:11:15.346Z,45.23
2023-04-16T19:14:03.307Z,45.60
2023-04-16T19:16:49.348Z,45.32
2023-04-16T19:19:36.032Z,45.57
2023-04-16T19:22:22.200Z,45.50
2023-04-16T19:25:09.280Z,45.53
2023-04-16T19:28:00.007Z,45.27
2023-04-16T19:30:52.962Z,45.85
2023-04-16T19:33:39.052Z,45.38
2023-04-16T19:36:24.932Z,45.74
2023-04-16T19:39:13.012Z,45.86
2023-04-16T19:42:01.930Z,45.87
2023-04-16T19:44:50.871Z,46.08
2023-04-16T19:47:38.516Z,45.91
2023-04-16T19:50:24.878Z,45.94
2023-04-16T19:53:11.918Z,46.01
2023-04-16T19:55:58.927Z,46.50
2023-04-16T19:58:45.919Z,46.25
2023-04-16T20:01:43.466Z,46.55
2023-04-16T20:04:34.910Z,46.34
2023-04-16T20:07:20.872Z,46.21
2023-04-16T20:10:07.486Z,46.57
2023-04-16T20:12:53.547Z,46.32
2023-04-16T20:15:39.577Z,46.30
2023-04-16T20:18:28.263Z,46.56
2023-04-16T20:21:14.800Z,46.45
2023-04-16T20:24:01.811Z,46.56
2023-04-16T20:26:47.886Z,46.56
2023-04-16T20:29:33.681Z,46.72
2023-04-16T20:32:20.203Z,46.51
2023-04-16T20:35:10.439Z,46.85
2023-04-16T20:37:56.644Z,46.41
2023-04-16T20:40:45.063Z,46.83
2023-04-16T20:43:38.172Z,46.59
2023-04-16T20:46:30.346Z,46.86
2023-04-16T20:49:18.596Z,46.87
2023-04-16T20:52:05.613Z,46.95
2023-04-16T20:54:52.468Z,47.05
2023-04-16T20:57:40.504Z,47.37
2023-04-16T21:00:26.145Z,47.17
2023-04-16T21:03:12.074Z,47.17
2023-04-16T21:05:58.145Z,47.27
2023-04-16T21:08:44.521Z,47.05
2023-04-16T21:11:33.502Z,47.03
2023-04-16T21:14:19.415Z,47.20
2023-04-16T21:17:05.604Z,46.86
2023-04-16T21:19:51.657Z,47.14
2023-04-16T21:22:37.863Z,46.97
2023-04-16T21:25:24.139Z,47.05
2023-04-16T21:28:10.054Z,47.00
2023-04-16T21:30:55.883Z,47.25
2023-04-16T21:33:41.584Z,47.28
2023-04-16T21:36:32.089Z,47.44
2023-04-16T21:39:19.840Z,47.12
2023-04-16T21:42:09.091Z,47.25
2023-04-16T21:44:56.353Z,47.25
2023-04-16T21:47:42.229Z,47.40
2023-04-16T21:50:28.200Z,47.35
2023-04-16T21:53:14.249Z,47.56
2023-04-16T21:56:00.204Z,47.65
2023-04-16T21:58:47.652Z,47.34
2023-04-16T22:01:35.432Z,47.42
2023-04-16T22:04:26.264Z,47.32
2023-04-16T22:07:12.193Z,47.75
2023-04-16T22:10:11.342Z,48.06
2023-04-16T22:12:59.619Z,47.90
2023-04-16T22:15:46.166Z,47.71
2023-04-16T22:18:35.078Z,47.50
2023-04-16T22:21:21.323Z,47.41
2023-04-16T22:24:07.834Z,47.56
2023-04-16T22:26:53.784Z,47.68
2023-04-16T22:29:40.498Z,48.02
2023-04-16T22:32:30.327Z,47.94
2023-04-16T22:35:16.572Z,48.10
2023-04-16T22:38:02.606Z,48.33
2023-04-16T22:40:49.094Z,48.13
2023-04-16T22:43:37.152Z,48.60
2023-04-16T22:46:24.806Z,48.40
2023-04-16T22:49:11.189Z,48.38
2023-04-16T22:51:57.337Z,48.47
2023-04-16T22:54:43.263Z,48.42
2023-04-16T22:57:29.105Z,48.36
2023-04-16T23:00:18.288Z,48.64
2023-04-16T23:03:04.559Z,48.70
2023-04-16T23:05:52.012Z,48.66
2023-04-16T23:08:38.077Z,48.49
2023-04-16T23:11:24.188Z,48.54
2023-04-16T23:14:10.109Z,48.64
2023-04-16T23:16:55.935Z,48.57
2023-04-16T23:19:42.407Z,48.74
2023-04-16T23:22:28.493Z,48.95
2023-04-16T23:25:14.251Z,49.01
2023-04-16T23:28:00.240Z,48.87
2023-04-16T23:30:46.810Z,48.63
2023-04-16T23:33:32.506Z,48.75
2023-04-16T23:36:18.340Z,48.68
2023-04-16T23:39:04.039Z,49.29
2023-04-16T23:41:58.272Z,49.17
2023-04-16T23:44:45.172Z,49.35
2023-04-16T23:47:31.344Z,49.21
2023-04-16T23:50:17.245Z,49.41
2023-04-16T23:53:03.187Z,49.29
2023-04-16T23:55:49.439Z,49.14
2023-04-16T23:58:35.384Z,49.48
